Ana Sayfa
METAR-TAF:

METAR-TAF

Havaalanları :

Ujgorod, Ukrayna

Enlem: 48-38-05N, Boylam: 022-15-53E, yükseklik: 117 m

Güncel hava durumu gözlemi

Rapor saat 15:00 UTC de 3 saat ve 31 dakika önce yapıldı.
Rüzgar kuzeybatıdan 6 kt, batı ve kuzey arasında değişken
Sıcaklık 21°C
Nem 64%
Basınç 1018 hPa
Görüş mesafesi 10 km veya daha fazla
5000 ft yükseklikte parçalı çok bulutlu

METAR: UKLU 231500Z 31003MPS 270V350 9999 BKN050 21/14 Q1018 R10/090070 NOSIG

Saat: 21:31 (18:31 UTC)

Tahmin

Rapor saat 14:02 UTC de 4 saat ve 29 dakika önce yapıldı.
Ayın 23'si saat 15 UTC'den ayın 23'si saat 24 UTC'ye kadar geçerli Tahmin
Rüzgar batı/kuzeybatıdan 10 kt
Görüş mesafesi 10 km veya daha fazla

TAF: UKLU 231402Z 2315/2324 30005MPS 9999 NSC

4.000'den fazla havaalanı için hava durumu gözlemleri ve tahminleri (METAR ve TAF raporları).

Kullanılabilir istasyonlar harita üzerinde sarı ve kırmızı noktalarla gösterilir.

İstasyonun adını görmek için fareyi noktanın üzerinde gezdirin.

Sonrasında hava gözlem ve tahminlerini görmek için tıklayın.

Haritayı değiştirmek için: yaklaştırmak için siyah artı işaretli yeşil düğmeye ve uzaklaştırmak için de eksi işaretli düğmeye hızla tıklayın; bitişik haritalar için yeşil okları kullanın.


METAR-TAF: